sensor_id;sensor_type;location;lat;lon;timestamp;temperature;humidity
6752;DHT22;3413;47.680;9.166;2023-04-23T00:02:32;18.20;91.80
6752;DHT22;3413;47.680;9.166;2023-04-23T00:07:35;18.30;91.80
6752;DHT22;3413;47.680;9.166;2023-04-23T00:12:38;18.30;91.80
6752;DHT22;3413;47.680;9.166;2023-04-23T00:17:40;18.30;91.80
6752;DHT22;3413;47.680;9.166;2023-04-23T00:22:42;18.30;91.90
6752;DHT22;3413;47.680;9.166;2023-04-23T00:27:44;18.30;91.90
6752;DHT22;3413;47.680;9.166;2023-04-23T00:32:48;18.20;91.90
6752;DHT22;3413;47.680;9.166;2023-04-23T00:37:50;18.10;92.00
6752;DHT22;3413;47.680;9.166;2023-04-23T00:42:55;18.00;92.00
6752;DHT22;3413;47.680;9.166;2023-04-23T00:47:59;17.90;92.00
6752;DHT22;3413;47.680;9.166;2023-04-23T00:53:01;17.80;92.00
6752;DHT22;3413;47.680;9.166;2023-04-23T00:58:03;17.60;92.00
6752;DHT22;3413;47.680;9.166;2023-04-23T01:03:07;17.50;92.00
6752;DHT22;3413;47.680;9.166;2023-04-23T01:08:13;17.40;92.00
6752;DHT22;3413;47.680;9.166;2023-04-23T01:13:16;17.30;92.00
6752;DHT22;3413;47.680;9.166;2023-04-23T01:18:18;17.40;92.00
6752;DHT22;3413;47.680;9.166;2023-04-23T01:23:22;17.40;92.00
6752;DHT22;3413;47.680;9.166;2023-04-23T01:28:25;17.40;91.90
6752;DHT22;3413;47.680;9.166;2023-04-23T01:33:27;17.40;91.80
6752;DHT22;3413;47.680;9.166;2023-04-23T01:38:30;17.30;91.80
6752;DHT22;3413;47.680;9.166;2023-04-23T01:43:34;17.30;91.70
6752;DHT22;3413;47.680;9.166;2023-04-23T01:48:36;17.10;91.60
6752;DHT22;3413;47.680;9.166;2023-04-23T01:53:38;17.00;91.50
6752;DHT22;3413;47.680;9.166;2023-04-23T01:58:40;16.90;91.50
6752;DHT22;3413;47.680;9.166;2023-04-23T02:03:43;16.80;91.50
6752;DHT22;3413;47.680;9.166;2023-04-23T02:08:46;16.70;91.50
6752;DHT22;3413;47.680;9.166;2023-04-23T02:13:48;16.70;91.40
6752;DHT22;3413;47.680;9.166;2023-04-23T02:18:50;16.70;91.40
6752;DHT22;3413;47.680;9.166;2023-04-23T02:23:52;16.50;91.50
6752;DHT22;3413;47.680;9.166;2023-04-23T02:28:54;16.40;91.50
6752;DHT22;3413;47.680;9.166;2023-04-23T02:33:56;16.30;91.50
6752;DHT22;3413;47.680;9.166;2023-04-23T02:38:58;16.40;91.60
6752;DHT22;3413;47.680;9.166;2023-04-23T02:44:00;16.40;91.60
6752;DHT22;3413;47.680;9.166;2023-04-23T02:49:03;16.40;91.60
6752;DHT22;3413;47.680;9.166;2023-04-23T02:54:05;16.40;91.70
6752;DHT22;3413;47.680;9.166;2023-04-23T02:59:10;16.50;91.80
6752;DHT22;3413;47.680;9.166;2023-04-23T03:04:12;16.60;91.90
6752;DHT22;3413;47.680;9.166;2023-04-23T03:09:14;16.70;91.90
6752;DHT22;3413;47.680;9.166;2023-04-23T03:14:16;16.80;91.90
6752;DHT22;3413;47.680;9.166;2023-04-23T03:19:18;16.60;91.90
6752;DHT22;3413;47.680;9.166;2023-04-23T03:24:20;16.50;91.90
6752;DHT22;3413;47.680;9.166;2023-04-23T03:29:23;16.40;91.90
6752;DHT22;3413;47.680;9.166;2023-04-23T03:34:25;16.40;91.90
6752;DHT22;3413;47.680;9.166;2023-04-23T03:39:27;16.50;92.00
6752;DHT22;3413;47.680;9.166;2023-04-23T03:44:29;16.40;91.90
6752;DHT22;3413;47.680;9.166;2023-04-23T03:49:32;16.30;91.90
6752;DHT22;3413;47.680;9.166;2023-04-23T03:54:34;16.30;91.90
6752;DHT22;3413;47.680;9.166;2023-04-23T03:59:46;16.20;91.90
6752;DHT22;3413;47.680;9.166;2023-04-23T04:04:48;16.00;91.90
6752;DHT22;3413;47.680;9.166;2023-04-23T04:09:52;16.00;91.90
6752;DHT22;3413;47.680;9.166;2023-04-23T04:14:55;15.90;91.90
6752;DHT22;3413;47.680;9.166;2023-04-23T04:19:57;16.00;91.90
6752;DHT22;3413;47.680;9.166;2023-04-23T04:25:00;16.10;92.00
6752;DHT22;3413;47.680;9.166;2023-04-23T04:30:02;16.20;92.00
6752;DHT22;3413;47.680;9.166;2023-04-23T04:35:06;16.30;92.10
6752;DHT22;3413;47.680;9.166;2023-04-23T04:40:10;16.20;92.10
6752;DHT22;3413;47.680;9.166;2023-04-23T04:45:12;16.30;92.20
6752;DHT22;3413;47.680;9.166;2023-04-23T04:50:14;16.30;92.10
6752;DHT22;3413;47.680;9.166;2023-04-23T04:55:16;16.30;92.10
6752;DHT22;3413;47.680;9.166;2023-04-23T05:00:23;16.20;92.10
6752;DHT22;3413;47.680;9.166;2023-04-23T05:05:27;16.20;92.10
6752;DHT22;3413;47.680;9.166;2023-04-23T05:10:29;16.20;92.10
6752;DHT22;3413;47.680;9.166;2023-04-23T05:15:31;16.20;92.10
6752;DHT22;3413;47.680;9.166;2023-04-23T05:20:33;16.10;92.10
6752;DHT22;3413;47.680;9.166;2023-04-23T05:25:35;15.90;92.20
6752;DHT22;3413;47.680;9.166;2023-04-23T05:30:37;15.90;92.20
6752;DHT22;3413;47.680;9.166;2023-04-23T05:35:40;15.90;92.20
6752;DHT22;3413;47.680;9.166;2023-04-23T05:40:42;16.00;92.20
6752;DHT22;3413;47.680;9.166;2023-04-23T05:45:44;15.90;92.20
6752;DHT22;3413;47.680;9.166;2023-04-23T05:50:46;15.80;92.30
6752;DHT22;3413;47.680;9.166;2023-04-23T05:55:50;15.80;92.30
6752;DHT22;3413;47.680;9.166;2023-04-23T06:00:52;15.90;92.40
6752;DHT22;3413;47.680;9.166;2023-04-23T06:05:54;15.90;92.40
6752;DHT22;3413;47.680;9.166;2023-04-23T06:10:56;15.90;92.40
6752;DHT22;3413;47.680;9.166;2023-04-23T06:15:59;15.70;92.40
6752;DHT22;3413;47.680;9.166;2023-04-23T06:21:01;15.70;92.50
6752;DHT22;3413;47.680;9.166;2023-04-23T06:26:05;15.80;92.50
6752;DHT22;3413;47.680;9.166;2023-04-23T06:31:07;15.90;92.50
6752;DHT22;3413;47.680;9.166;2023-04-23T06:36:10;15.90;92.50
6752;DHT22;3413;47.680;9.166;2023-04-23T06:41:12;15.90;92.50
6752;DHT22;3413;47.680;9.166;2023-04-23T06:46:15;16.00;92.60
6752;DHT22;3413;47.680;9.166;2023-04-23T06:51:17;16.10;92.60
6752;DHT22;3413;47.680;9.166;2023-04-23T06:56:20;16.10;92.50
6752;DHT22;3413;47.680;9.166;2023-04-23T07:01:23;16.10;92.70
6752;DHT22;3413;47.680;9.166;2023-04-23T07:06:25;16.10;92.70
6752;DHT22;3413;47.680;9.166;2023-04-23T07:11:28;16.10;92.70
6752;DHT22;3413;47.680;9.166;2023-04-23T07:16:32;16.10;92.70
6752;DHT22;3413;47.680;9.166;2023-04-23T07:21:35;16.10;92.60
6752;DHT22;3413;47.680;9.166;2023-04-23T07:26:37;16.20;92.70
6752;DHT22;3413;47.680;9.166;2023-04-23T07:31:39;16.30;92.80
6752;DHT22;3413;47.680;9.166;2023-04-23T07:36:44;16.40;92.90
6752;DHT22;3413;47.680;9.166;2023-04-23T07:41:46;16.50;93.00
6752;DHT22;3413;47.680;9.166;2023-04-23T07:46:49;16.50;93.10
6752;DHT22;3413;47.680;9.166;2023-04-23T07:51:51;16.60;93.30
6752;DHT22;3413;47.680;9.166;2023-04-23T07:56:54;16.70;93.50
6752;DHT22;3413;47.680;9.166;2023-04-23T08:01:57;16.80;93.50
6752;DHT22;3413;47.680;9.166;2023-04-23T08:07:00;16.90;93.60
6752;DHT22;3413;47.680;9.166;2023-04-23T08:12:02;17.00;93.60
6752;DHT22;3413;47.680;9.166;2023-04-23T08:17:05;17.00;93.70
6752;DHT22;3413;47.680;9.166;2023-04-23T08:22:07;17.10;93.80
6752;DHT22;3413;47.680;9.166;2023-04-23T08:27:11;17.20;93.90
6752;DHT22;3413;47.680;9.166;2023-04-23T08:32:13;17.40;94.00
6752;DHT22;3413;47.680;9.166;2023-04-23T08:37:19;17.50;94.10
6752;DHT22;3413;47.680;9.166;2023-04-23T08:42:37;17.60;94.20
6752;DHT22;3413;47.680;9.166;2023-04-23T08:47:43;17.70;94.30
6752;DHT22;3413;47.680;9.166;2023-04-23T08:52:50;17.90;94.40
6752;DHT22;3413;47.680;9.166;2023-04-23T08:57:54;18.00;94.50
6752;DHT22;3413;47.680;9.166;2023-04-23T09:02:57;18.10;94.60
6752;DHT22;3413;47.680;9.166;2023-04-23T09:08:00;18.40;94.60
6752;DHT22;3413;47.680;9.166;2023-04-23T09:13:05;18.50;94.60
6752;DHT22;3413;47.680;9.166;2023-04-23T09:18:09;18.60;94.70
6752;DHT22;3413;47.680;9.166;2023-04-23T09:23:15;18.70;94.80
6752;DHT22;3413;47.680;9.166;2023-04-23T09:28:18;18.90;94.90
6752;DHT22;3413;47.680;9.166;2023-04-23T09:33:24;19.10;94.80
6752;DHT22;3413;47.680;9.166;2023-04-23T09:38:27;19.20;95.00
6752;DHT22;3413;47.680;9.166;2023-04-23T09:43:34;19.30;95.10
6752;DHT22;3413;47.680;9.166;2023-04-23T09:48:41;19.60;95.00
6752;DHT22;3413;47.680;9.166;2023-04-23T09:53:49;19.70;95.10
6752;DHT22;3413;47.680;9.166;2023-04-23T09:58:53;19.80;95.20
6752;DHT22;3413;47.680;9.166;2023-04-23T10:04:02;20.00;95.30
6752;DHT22;3413;47.680;9.166;2023-04-23T10:09:08;20.10;95.40
6752;DHT22;3413;47.680;9.166;2023-04-23T10:14:15;20.10;95.40
6752;DHT22;3413;47.680;9.166;2023-04-23T10:19:31;20.30;95.50
6752;DHT22;3413;47.680;9.166;2023-04-23T10:24:36;20.50;95.50
6752;DHT22;3413;47.680;9.166;2023-04-23T10:29:41;20.70;95.60
6752;DHT22;3413;47.680;9.166;2023-04-23T10:34:44;20.80;95.50
6752;DHT22;3413;47.680;9.166;2023-04-23T10:39:49;21.00;95.70
6752;DHT22;3413;47.680;9.166;2023-04-23T10:44:55;21.20;95.70
6752;DHT22;3413;47.680;9.166;2023-04-23T10:50:28;21.30;95.80
6752;DHT22;3413;47.680;9.166;2023-04-23T10:55:31;21.50;95.80
6752;DHT22;3413;47.680;9.166;2023-04-23T11:00:46;21.50;95.80
6752;DHT22;3413;47.680;9.166;2023-04-23T11:05:48;21.60;95.80
6752;DHT22;3413;47.680;9.166;2023-04-23T11:10:54;21.60;95.80
6752;DHT22;3413;47.680;9.166;2023-04-23T11:16:21;21.80;95.90
6752;DHT22;3413;47.680;9.166;2023-04-23T11:21:59;22.00;95.80
6752;DHT22;3413;47.680;9.166;2023-04-23T11:27:05;22.20;95.70
6752;DHT22;3413;47.680;9.166;2023-04-23T11:32:09;22.30;95.60
6752;DHT22;3413;47.680;9.166;2023-04-23T11:37:16;22.40;95.80
6752;DHT22;3413;47.680;9.166;2023-04-23T11:42:18;22.50;95.90
6752;DHT22;3413;47.680;9.166;2023-04-23T11:47:21;22.50;95.80
6752;DHT22;3413;47.680;9.166;2023-04-23T11:52:26;22.60;95.90
6752;DHT22;3413;47.680;9.166;2023-04-23T11:57:29;22.80;95.90
6752;DHT22;3413;47.680;9.166;2023-04-23T12:02:31;22.90;96.00
6752;DHT22;3413;47.680;9.166;2023-04-23T12:07:33;23.10;96.10
6752;DHT22;3413;47.680;9.166;2023-04-23T12:12:35;23.30;95.70
6752;DHT22;3413;47.680;9.166;2023-04-23T12:17:37;23.40;95.60
6752;DHT22;3413;47.680;9.166;2023-04-23T12:22:39;23.40;95.50
6752;DHT22;3413;47.680;9.166;2023-04-23T12:27:43;23.50;95.60
6752;DHT22;3413;47.680;9.166;2023-04-23T12:32:45;23.60;95.50
6752;DHT22;3413;47.680;9.166;2023-04-23T12:37:49;23.40;95.40
6752;DHT22;3413;47.680;9.166;2023-04-23T12:42:51;23.40;95.40
6752;DHT22;3413;47.680;9.166;2023-04-23T12:48:20;23.60;95.40
6752;DHT22;3413;47.680;9.166;2023-04-23T12:53:30;23.80;95.40
6752;DHT22;3413;47.680;9.166;2023-04-23T12:58:32;24.10;95.60
6752;DHT22;3413;47.680;9.166;2023-04-23T13:03:35;24.30;95.80
6752;DHT22;3413;47.680;9.166;2023-04-23T13:08:37;24.40;95.90
6752;DHT22;3413;47.680;9.166;2023-04-23T13:13:39;24.60;96.00
6752;DHT22;3413;47.680;9.166;2023-04-23T13:18:41;24.60;96.00
6752;DHT22;3413;47.680;9.166;2023-04-23T13:23:43;24.70;96.00
6752;DHT22;3413;47.680;9.166;2023-04-23T13:28:46;24.90;96.10
6752;DHT22;3413;47.680;9.166;2023-04-23T13:33:48;24.90;96.00
6752;DHT22;3413;47.680;9.166;2023-04-23T13:38:50;25.10;96.30
6752;DHT22;3413;47.680;9.166;2023-04-23T13:43:52;25.20;96.00
6752;DHT22;3413;47.680;9.166;2023-04-23T13:48:54;25.20;95.90
6752;DHT22;3413;47.680;9.166;2023-04-23T13:53:57;25.00;95.80
6752;DHT22;3413;47.680;9.166;2023-04-23T13:59:00;25.10;95.80
6752;DHT22;3413;47.680;9.166;2023-04-23T14:04:20;25.10;95.50
6752;DHT22;3413;47.680;9.166;2023-04-23T14:09:26;24.90;95.20
6752;DHT22;3413;47.680;9.166;2023-04-23T14:14:28;24.40;94.80
6752;DHT22;3413;47.680;9.166;2023-04-23T14:19:30;24.00;94.90
6752;DHT22;3413;47.680;9.166;2023-04-23T14:24:43;23.70;94.30
6752;DHT22;3413;47.680;9.166;2023-04-23T14:29:50;23.30;94.10
6752;DHT22;3413;47.680;9.166;2023-04-23T14:34:53;23.20;94.30
6752;DHT22;3413;47.680;9.166;2023-04-23T14:39:55;22.90;93.70
6752;DHT22;3413;47.680;9.166;2023-04-23T14:44:58;22.50;93.50
6752;DHT22;3413;47.680;9.166;2023-04-23T14:50:01;22.20;93.80
6752;DHT22;3413;47.680;9.166;2023-04-23T14:55:03;22.00;93.60
6752;DHT22;3413;47.680;9.166;2023-04-23T15:00:06;22.10;93.60
6752;DHT22;3413;47.680;9.166;2023-04-23T15:05:08;22.30;93.50
6752;DHT22;3413;47.680;9.166;2023-04-23T15:10:11;22.50;93.50
6752;DHT22;3413;47.680;9.166;2023-04-23T15:15:26;22.60;93.60
6752;DHT22;3413;47.680;9.166;2023-04-23T15:20:44;22.70;93.60
6752;DHT22;3413;47.680;9.166;2023-04-23T15:25:50;22.70;93.50
6752;DHT22;3413;47.680;9.166;2023-04-23T15:30:53;22.60;93.50
6752;DHT22;3413;47.680;9.166;2023-04-23T15:35:55;22.40;93.30
6752;DHT22;3413;47.680;9.166;2023-04-23T15:41:00;21.40;92.80
6752;DHT22;3413;47.680;9.166;2023-04-23T15:46:02;20.80;92.60
6752;DHT22;3413;47.680;9.166;2023-04-23T15:51:04;20.40;92.40
6752;DHT22;3413;47.680;9.166;2023-04-23T15:56:07;19.90;92.20
6752;DHT22;3413;47.680;9.166;2023-04-23T16:01:09;19.40;92.20
6752;DHT22;3413;47.680;9.166;2023-04-23T16:06:12;18.90;92.10
6752;DHT22;3413;47.680;9.166;2023-04-23T16:11:14;18.90;92.20
6752;DHT22;3413;47.680;9.166;2023-04-23T16:16:16;18.80;92.00
6752;DHT22;3413;47.680;9.166;2023-04-23T16:21:18;18.60;91.90
6752;DHT22;3413;47.680;9.166;2023-04-23T16:26:20;18.20;91.80
6752;DHT22;3413;47.680;9.166;2023-04-23T16:31:33;17.90;91.80
6752;DHT22;3413;47.680;9.166;2023-04-23T16:37:20;17.60;91.90
6752;DHT22;3413;47.680;9.166;2023-04-23T16:42:22;17.50;91.90
6752;DHT22;3413;47.680;9.166;2023-04-23T16:47:25;17.40;91.80
6752;DHT22;3413;47.680;9.166;2023-04-23T16:52:27;17.40;91.90
6752;DHT22;3413;47.680;9.166;2023-04-23T16:57:29;17.40;91.90
6752;DHT22;3413;47.680;9.166;2023-04-23T17:02:31;17.40;91.90
6752;DHT22;3413;47.680;9.166;2023-04-23T17:07:33;17.30;91.90
6752;DHT22;3413;47.680;9.166;2023-04-23T17:12:35;17.20;92.00
6752;DHT22;3413;47.680;9.166;2023-04-23T17:22:43;17.20;92.00
6752;DHT22;3413;47.680;9.166;2023-04-23T17:27:45;17.20;92.10
6752;DHT22;3413;47.680;9.166;2023-04-23T17:32:47;17.30;92.30
6752;DHT22;3413;47.680;9.166;2023-04-23T17:37:49;17.60;92.40
6752;DHT22;3413;47.680;9.166;2023-04-23T17:42:51;17.80;92.50
6752;DHT22;3413;47.680;9.166;2023-04-23T17:47:53;17.90;92.50
6752;DHT22;3413;47.680;9.166;2023-04-23T17:52:55;18.10;92.70
6752;DHT22;3413;47.680;9.166;2023-04-23T17:57:57;18.30;92.70
6752;DHT22;3413;47.680;9.166;2023-04-23T18:03:01;18.40;92.90
6752;DHT22;3413;47.680;9.166;2023-04-23T18:08:03;18.50;93.00
6752;DHT22;3413;47.680;9.166;2023-04-23T18:13:07;18.70;93.00
6752;DHT22;3413;47.680;9.166;2023-04-23T18:18:12;18.80;93.00
6752;DHT22;3413;47.680;9.166;2023-04-23T18:23:13;18.90;93.10
6752;DHT22;3413;47.680;9.166;2023-04-23T18:28:16;19.10;93.20
6752;DHT22;3413;47.680;9.166;2023-04-23T18:33:41;19.10;93.10
6752;DHT22;3413;47.680;9.166;2023-04-23T18:38:44;19.00;93.10
6752;DHT22;3413;47.680;9.166;2023-04-23T18:43:46;18.80;92.90
6752;DHT22;3413;47.680;9.166;2023-04-23T18:49:36;18.50;92.90
6752;DHT22;3413;47.680;9.166;2023-04-23T18:54:20;18.30;92.90
6752;DHT22;3413;47.680;9.166;2023-04-23T18:59:22;18.10;92.80
6752;DHT22;3413;47.680;9.166;2023-04-23T19:10:50;17.40;92.60
6752;DHT22;3413;47.680;9.166;2023-04-23T19:15:57;17.20;92.50
6752;DHT22;3413;47.680;9.166;2023-04-23T19:21:05;17.00;92.40
6752;DHT22;3413;47.680;9.166;2023-04-23T19:26:23;16.70;92.30
6752;DHT22;3413;47.680;9.166;2023-04-23T19:31:27;16.30;92.20
6752;DHT22;3413;47.680;9.166;2023-04-23T19:44:25;15.90;92.10
6752;DHT22;3413;47.680;9.166;2023-04-23T19:49:29;15.70;92.00
6752;DHT22;3413;47.680;9.166;2023-04-23T19:54:33;15.80;92.10
6752;DHT22;3413;47.680;9.166;2023-04-23T19:59:38;15.90;92.50
6752;DHT22;3413;47.680;9.166;2023-04-23T20:04:44;16.00;92.20
6752;DHT22;3413;47.680;9.166;2023-04-23T20:09:48;16.10;92.30
6752;DHT22;3413;47.680;9.166;2023-04-23T20:14:53;16.10;92.40
6752;DHT22;3413;47.680;9.166;2023-04-23T20:19:57;16.20;92.40
6752;DHT22;3413;47.680;9.166;2023-04-23T20:25:02;16.20;92.40
6752;DHT22;3413;47.680;9.166;2023-04-23T20:30:07;16.20;92.50
6752;DHT22;3413;47.680;9.166;2023-04-23T20:35:11;16.10;92.50
6752;DHT22;3413;47.680;9.166;2023-04-23T20:40:13;16.00;92.70
6752;DHT22;3413;47.680;9.166;2023-04-23T20:45:17;16.00;92.50
6752;DHT22;3413;47.680;9.166;2023-04-23T20:50:20;16.00;92.50
6752;DHT22;3413;47.680;9.166;2023-04-23T20:55:22;16.10;92.60
6752;DHT22;3413;47.680;9.166;2023-04-23T21:00:25;16.10;92.60
6752;DHT22;3413;47.680;9.166;2023-04-23T21:05:29;16.20;92.70
6752;DHT22;3413;47.680;9.166;2023-04-23T21:10:32;16.20;92.80
6752;DHT22;3413;47.680;9.166;2023-04-23T21:15:37;16.20;92.80
6752;DHT22;3413;47.680;9.166;2023-04-23T21:20:40;16.20;92.80
6752;DHT22;3413;47.680;9.166;2023-04-23T21:25:42;16.20;92.80
6752;DHT22;3413;47.680;9.166;2023-04-23T21:30:56;16.30;92.90
6752;DHT22;3413;47.680;9.166;2023-04-23T21:36:00;16.30;93.00
6752;DHT22;3413;47.680;9.166;2023-04-23T21:41:04;16.40;92.90
6752;DHT22;3413;47.680;9.166;2023-04-23T21:46:10;16.40;92.90
6752;DHT22;3413;47.680;9.166;2023-04-23T21:51:16;16.30;92.80
6752;DHT22;3413;47.680;9.166;2023-04-23T21:56:21;16.20;92.70
6752;DHT22;3413;47.680;9.166;2023-04-23T22:01:25;16.00;92.70
6752;DHT22;3413;47.680;9.166;2023-04-23T22:06:30;15.80;92.80
6752;DHT22;3413;47.680;9.166;2023-04-23T22:11:35;15.90;93.20
6752;DHT22;3413;47.680;9.166;2023-04-23T22:16:39;16.00;92.90
6752;DHT22;3413;47.680;9.166;2023-04-23T22:21:42;16.00;92.90
6752;DHT22;3413;47.680;9.166;2023-04-23T22:26:50;16.10;93.00
6752;DHT22;3413;47.680;9.166;2023-04-23T22:31:52;16.20;93.00
6752;DHT22;3413;47.680;9.166;2023-04-23T22:36:54;16.00;92.90
6752;DHT22;3413;47.680;9.166;2023-04-23T22:41:56;16.00;93.00
6752;DHT22;3413;47.680;9.166;2023-04-23T22:46:58;16.00;93.00
6752;DHT22;3413;47.680;9.166;2023-04-23T22:52:01;16.00;93.00
6752;DHT22;3413;47.680;9.166;2023-04-23T22:57:03;16.10;93.10
6752;DHT22;3413;47.680;9.166;2023-04-23T23:02:06;16.10;93.00
6752;DHT22;3413;47.680;9.166;2023-04-23T23:07:08;16.10;93.00
6752;DHT22;3413;47.680;9.166;2023-04-23T23:12:10;16.10;93.00
6752;DHT22;3413;47.680;9.166;2023-04-23T23:17:12;16.10;93.10
6752;DHT22;3413;47.680;9.166;2023-04-23T23:22:15;16.10;93.10
6752;DHT22;3413;47.680;9.166;2023-04-23T23:27:17;16.10;93.20
6752;DHT22;3413;47.680;9.166;2023-04-23T23:32:19;16.10;93.20
6752;DHT22;3413;47.680;9.166;2023-04-23T23:37:21;16.10;93.00
6752;DHT22;3413;47.680;9.166;2023-04-23T23:42:23;15.90;92.90
6752;DHT22;3413;47.680;9.166;2023-04-23T23:47:25;15.80;93.00
6752;DHT22;3413;47.680;9.166;2023-04-23T23:52:27;15.70;93.00
6752;DHT22;3413;47.680;9.166;2023-04-23T23:57:29;15.40;92.90
